createdAt,value
2022-12-18T00:00:19.278Z,27
2022-12-18T00:01:59.022Z,27
2022-12-18T00:03:38.789Z,27
2022-12-18T00:05:18.550Z,26
2022-12-18T00:06:58.323Z,27
2022-12-18T00:08:38.082Z,27
2022-12-18T00:10:17.866Z,27
2022-12-18T00:11:57.607Z,27
2022-12-18T00:13:37.370Z,27
2022-12-18T00:15:17.247Z,27
2022-12-18T00:16:56.908Z,26
2022-12-18T00:18:36.679Z,27
2022-12-18T00:20:16.459Z,27
2022-12-18T00:21:56.271Z,27
2022-12-18T00:23:35.971Z,26
2022-12-18T00:25:15.747Z,27
2022-12-18T00:26:55.503Z,27
2022-12-18T00:28:35.279Z,26
2022-12-18T00:30:15.037Z,26
2022-12-18T00:31:54.814Z,26
2022-12-18T00:35:14.402Z,26
2022-12-18T00:36:54.114Z,26
2022-12-18T00:40:13.642Z,26
2022-12-18T00:41:53.421Z,26
2022-12-18T00:43:33.161Z,26
2022-12-18T00:45:12.958Z,26
2022-12-18T00:46:52.703Z,26
2022-12-18T00:48:32.476Z,26
2022-12-18T00:50:12.236Z,26
2022-12-18T00:51:52.004Z,26
2022-12-18T00:53:31.774Z,26
2022-12-18T00:55:11.575Z,26
2022-12-18T00:56:51.301Z,26
2022-12-18T00:58:31.079Z,26
2022-12-18T01:00:10.831Z,26
2022-12-18T01:01:50.587Z,26
2022-12-18T01:03:30.367Z,26
2022-12-18T01:05:10.159Z,26
2022-12-18T01:08:29.633Z,26
2022-12-18T01:10:09.453Z,26
2022-12-18T01:11:49.183Z,26
2022-12-18T01:13:28.942Z,26
2022-12-18T01:15:08.707Z,26
2022-12-18T01:16:48.461Z,26
2022-12-18T01:18:28.222Z,26
2022-12-18T01:20:07.996Z,26
2022-12-18T01:21:47.764Z,26
2022-12-18T01:23:27.518Z,26
2022-12-18T01:25:07.295Z,26
2022-12-18T01:26:47.057Z,26
2022-12-18T01:28:26.829Z,26
2022-12-18T01:30:06.585Z,26
2022-12-18T01:31:46.337Z,26
2022-12-18T01:33:26.107Z,26
2022-12-18T01:35:05.887Z,26
2022-12-18T01:36:45.627Z,26
2022-12-18T01:38:25.401Z,26
2022-12-18T01:40:05.171Z,26
2022-12-18T01:41:44.918Z,26
2022-12-18T01:43:24.719Z,26
2022-12-18T01:45:04.465Z,26
2022-12-18T01:46:44.227Z,26
2022-12-18T01:48:23.985Z,26
2022-12-18T01:50:03.743Z,26
2022-12-18T01:51:43.505Z,26
2022-12-18T01:53:23.314Z,26
2022-12-18T01:55:03.031Z,26
2022-12-18T01:56:42.810Z,26
2022-12-18T01:58:22.579Z,26
2022-12-18T02:00:02.349Z,26
2022-12-18T02:01:42.094Z,26
2022-12-18T02:03:21.871Z,26
2022-12-18T02:05:01.628Z,26
2022-12-18T02:06:41.383Z,26
2022-12-18T02:08:21.143Z,26
2022-12-18T02:10:00.922Z,26
2022-12-18T02:11:40.692Z,26
2022-12-18T02:13:20.446Z,26
2022-12-18T02:15:00.208Z,26
2022-12-18T02:16:39.972Z,26
2022-12-18T02:18:19.752Z,26
2022-12-18T02:19:59.507Z,25
2022-12-18T02:21:39.302Z,26
2022-12-18T02:23:19.020Z,26
2022-12-18T02:24:58.799Z,26
2022-12-18T02:26:38.559Z,26
2022-12-18T02:28:18.319Z,26
2022-12-18T02:29:58.094Z,26
2022-12-18T02:31:37.847Z,25
2022-12-18T02:33:17.612Z,25
2022-12-18T02:34:57.394Z,25
2022-12-18T02:36:37.182Z,25
2022-12-18T02:38:16.919Z,25
2022-12-18T02:39:56.663Z,25
2022-12-18T02:41:36.437Z,25
2022-12-18T02:43:16.211Z,25
2022-12-18T02:44:55.958Z,25
2022-12-18T02:46:35.754Z,25
2022-12-18T02:48:15.492Z,25
2022-12-18T02:49:55.248Z,25
2022-12-18T02:51:35.013Z,25
2022-12-18T02:53:14.782Z,25
2022-12-18T02:54:54.585Z,25
2022-12-18T02:56:34.319Z,25
2022-12-18T02:58:14.064Z,25
2022-12-18T03:01:33.606Z,25
2022-12-18T03:03:13.373Z,25
2022-12-18T03:04:53.142Z,25
2022-12-18T03:06:32.902Z,25
2022-12-18T03:08:12.660Z,25
2022-12-18T03:09:52.428Z,25
2022-12-18T03:11:32.194Z,25
2022-12-18T03:13:11.971Z,25
2022-12-18T03:14:51.725Z,25
2022-12-18T03:16:31.489Z,25
2022-12-18T03:18:11.242Z,25
2022-12-18T03:19:51.010Z,25
2022-12-18T03:21:30.766Z,25
2022-12-18T03:23:10.567Z,25
2022-12-18T03:24:50.330Z,25
2022-12-18T03:26:30.089Z,25
2022-12-18T03:28:09.837Z,25
2022-12-18T03:29:49.594Z,25
2022-12-18T03:31:29.354Z,25
2022-12-18T03:33:09.124Z,25
2022-12-18T03:34:48.880Z,25
2022-12-18T03:36:28.654Z,25
2022-12-18T03:38:08.427Z,25
2022-12-18T03:39:48.172Z,25
2022-12-18T03:41:27.939Z,25
2022-12-18T03:43:07.714Z,25
2022-12-18T03:44:47.487Z,25
2022-12-18T03:46:27.291Z,25
2022-12-18T03:48:07.003Z,25
2022-12-18T03:49:46.816Z,25
2022-12-18T03:51:26.528Z,25
2022-12-18T03:53:06.296Z,25
2022-12-18T03:56:25.821Z,25
2022-12-18T03:58:05.641Z,25
2022-12-18T03:59:45.361Z,25
2022-12-18T04:01:25.105Z,25
2022-12-18T04:03:04.867Z,25
2022-12-18T04:04:44.649Z,25
2022-12-18T04:06:24.400Z,25
2022-12-18T04:08:04.183Z,25
2022-12-18T04:09:43.939Z,25
2022-12-18T04:11:23.706Z,25
2022-12-18T04:13:03.462Z,25
2022-12-18T04:14:43.249Z,25
2022-12-18T04:16:22.989Z,25
2022-12-18T04:18:02.760Z,25
2022-12-18T04:19:42.508Z,25
2022-12-18T04:21:22.284Z,25
2022-12-18T04:23:02.045Z,25
2022-12-18T04:24:41.817Z,25
2022-12-18T04:26:21.574Z,25
2022-12-18T04:28:01.344Z,25
2022-12-18T04:29:41.106Z,25
2022-12-18T04:31:20.871Z,25
2022-12-18T04:33:00.639Z,25
2022-12-18T04:34:40.415Z,25
2022-12-18T04:36:20.163Z,25
2022-12-18T04:37:59.933Z,25
2022-12-18T04:39:39.689Z,25
2022-12-18T04:41:19.447Z,25
2022-12-18T04:42:59.206Z,25
2022-12-18T04:44:38.971Z,25
2022-12-18T04:46:18.736Z,25
2022-12-18T04:47:58.562Z,25
2022-12-18T04:49:38.270Z,25
2022-12-18T04:51:18.046Z,25
2022-12-18T04:52:57.805Z,25
2022-12-18T04:54:37.568Z,25
2022-12-18T04:56:17.325Z,25
2022-12-18T04:57:57.156Z,25
2022-12-18T04:59:36.865Z,25
2022-12-18T05:01:16.615Z,25
2022-12-18T05:02:56.387Z,25
2022-12-18T05:04:36.139Z,25
2022-12-18T05:06:15.927Z,25
2022-12-18T05:07:55.688Z,25
2022-12-18T05:09:35.451Z,25
2022-12-18T05:11:15.212Z,25
2022-12-18T05:12:54.989Z,25
2022-12-18T05:16:14.512Z,25
2022-12-18T05:17:54.257Z,25
2022-12-18T05:19:34.023Z,25
2022-12-18T05:21:13.804Z,25
2022-12-18T05:22:53.562Z,25
2022-12-18T05:24:33.315Z,25
2022-12-18T05:26:13.154Z,25
2022-12-18T05:27:52.846Z,25
2022-12-18T05:29:32.609Z,25
2022-12-18T05:31:12.372Z,25
2022-12-18T05:32:52.149Z,25
2022-12-18T05:34:31.901Z,25
2022-12-18T05:36:11.662Z,25
2022-12-18T05:37:51.431Z,25
2022-12-18T05:39:31.193Z,25
2022-12-18T05:41:10.969Z,25
2022-12-18T05:42:50.715Z,25
2022-12-18T05:44:30.496Z,25
2022-12-18T05:46:10.265Z,25
2022-12-18T05:47:50.007Z,25
2022-12-18T05:49:29.792Z,25
2022-12-18T05:51:09.671Z,25
2022-12-18T05:52:49.309Z,25
2022-12-18T05:54:29.071Z,25
2022-12-18T05:56:08.845Z,25
2022-12-18T05:57:48.615Z,25
2022-12-18T05:59:28.366Z,25
2022-12-18T06:01:08.125Z,25
2022-12-18T06:02:47.882Z,25
2022-12-18T06:04:27.652Z,25
2022-12-18T06:06:07.460Z,25
2022-12-18T06:07:47.194Z,25
2022-12-18T06:09:26.946Z,25
2022-12-18T06:11:06.719Z,25
2022-12-18T06:12:46.468Z,25
2022-12-18T06:14:26.246Z,25
2022-12-18T06:16:05.992Z,25
2022-12-18T06:17:45.763Z,25
2022-12-18T06:19:25.533Z,25
2022-12-18T06:21:05.290Z,25
2022-12-18T06:22:45.082Z,25
2022-12-18T06:24:24.815Z,25
2022-12-18T06:26:04.593Z,25
2022-12-18T06:27:44.350Z,25
2022-12-18T06:29:24.113Z,25
2022-12-18T06:31:03.872Z,25
2022-12-18T06:32:43.653Z,25
2022-12-18T06:34:23.413Z,25
2022-12-18T06:36:03.181Z,25
2022-12-18T06:37:42.946Z,25
2022-12-18T06:39:22.706Z,25
2022-12-18T06:41:02.461Z,25
2022-12-18T06:42:42.222Z,25
2022-12-18T06:44:22.004Z,25
2022-12-18T06:46:01.763Z,25
2022-12-18T06:47:41.606Z,25
2022-12-18T06:49:21.294Z,25
2022-12-18T06:51:01.062Z,25
2022-12-18T06:52:40.814Z,25
2022-12-18T06:54:20.587Z,25
2022-12-18T06:56:00.351Z,25
2022-12-18T06:57:40.103Z,25
2022-12-18T06:59:19.864Z,25
2022-12-18T07:00:59.642Z,25
2022-12-18T07:02:39.416Z,25
2022-12-18T07:04:19.165Z,24
2022-12-18T07:05:58.928Z,25
2022-12-18T07:07:38.763Z,24
2022-12-18T07:09:18.455Z,25
2022-12-18T07:10:58.214Z,28
2022-12-18T07:12:38.011Z,26
2022-12-18T07:14:17.759Z,28
2022-12-18T07:15:57.512Z,29
2022-12-18T07:17:37.314Z,28
2022-12-18T07:19:17.055Z,25
2022-12-18T07:20:56.816Z,24
2022-12-18T07:22:36.583Z,24
2022-12-18T07:24:16.363Z,24
2022-12-18T07:25:56.141Z,24
2022-12-18T07:27:35.878Z,24
2022-12-18T07:29:15.707Z,24
2022-12-18T07:30:55.407Z,24
2022-12-18T07:32:35.176Z,24
2022-12-18T07:34:14.936Z,24
2022-12-18T07:35:54.707Z,24
2022-12-18T07:37:34.479Z,24
2022-12-18T07:39:14.244Z,24
2022-12-18T07:40:53.994Z,24
2022-12-18T07:42:33.758Z,24
2022-12-18T07:44:13.583Z,24
2022-12-18T07:45:53.322Z,24
2022-12-18T07:47:33.066Z,24
2022-12-18T07:49:12.886Z,24
2022-12-18T07:50:52.588Z,24
2022-12-18T07:52:32.367Z,24
2022-12-18T07:54:12.179Z,24
2022-12-18T07:55:51.895Z,24
2022-12-18T07:57:31.664Z,24
2022-12-18T07:59:11.448Z,24
2022-12-18T08:00:51.663Z,24
2022-12-18T08:02:30.962Z,24
2022-12-18T08:04:10.733Z,25
2022-12-18T08:05:50.508Z,24
2022-12-18T08:07:30.332Z,25
2022-12-18T08:09:10.051Z,25
2022-12-18T08:10:49.796Z,25
2022-12-18T08:12:29.563Z,25
2022-12-18T08:14:09.342Z,25
2022-12-18T08:15:49.086Z,25
2022-12-18T08:17:28.855Z,25
2022-12-18T08:19:08.700Z,25
2022-12-18T08:20:48.400Z,25
2022-12-18T08:22:28.163Z,25
2022-12-18T08:24:07.925Z,25
2022-12-18T08:25:47.747Z,25
2022-12-18T08:27:27.452Z,25
2022-12-18T08:29:07.282Z,25
2022-12-18T08:30:46.983Z,25
2022-12-18T08:32:26.747Z,25
2022-12-18T08:34:06.528Z,25
2022-12-18T08:37:26.116Z,25
2022-12-18T08:39:05.843Z,25
2022-12-18T08:40:45.585Z,25
2022-12-18T08:42:25.359Z,25
2022-12-18T08:44:05.136Z,25
2022-12-18T08:45:44.888Z,25
2022-12-18T08:47:24.652Z,25
2022-12-18T08:49:04.415Z,25
2022-12-18T08:50:44.186Z,26
2022-12-18T08:52:23.955Z,26
2022-12-18T08:54:03.725Z,26
2022-12-18T08:55:43.497Z,26
2022-12-18T08:57:23.279Z,26
2022-12-18T08:59:03.026Z,26
2022-12-18T09:00:42.800Z,27
2022-12-18T09:02:22.564Z,26
2022-12-18T09:04:02.324Z,27
2022-12-18T09:05:42.086Z,27
2022-12-18T09:07:21.855Z,27
2022-12-18T09:09:01.643Z,27
2022-12-18T09:10:41.404Z,27
2022-12-18T09:12:21.173Z,27
2022-12-18T09:14:00.974Z,26
2022-12-18T09:15:40.710Z,26
2022-12-18T09:17:20.460Z,26
2022-12-18T09:19:00.237Z,26
2022-12-18T09:20:39.990Z,26
2022-12-18T09:22:19.760Z,26
2022-12-18T09:23:59.580Z,26
2022-12-18T09:25:39.294Z,26
2022-12-18T09:27:19.057Z,26
2022-12-18T09:28:58.823Z,26
2022-12-18T09:30:38.660Z,27
2022-12-18T09:32:18.373Z,27
2022-12-18T09:33:58.145Z,26
2022-12-18T09:35:37.888Z,26
2022-12-18T09:38:57.438Z,27
2022-12-18T09:40:37.188Z,27
2022-12-18T09:42:16.964Z,27
2022-12-18T09:43:56.738Z,26
2022-12-18T09:45:36.506Z,27
2022-12-18T09:47:16.304Z,27
2022-12-18T09:48:56.045Z,27
2022-12-18T09:50:35.804Z,28
2022-12-18T09:53:55.326Z,27
2022-12-18T09:55:35.101Z,27
2022-12-18T09:57:14.881Z,27
2022-12-18T09:58:54.637Z,27
2022-12-18T10:00:34.413Z,27
2022-12-18T10:02:14.187Z,27
2022-12-18T10:03:53.948Z,27
2022-12-18T10:05:33.741Z,27
2022-12-18T10:07:13.487Z,28
2022-12-18T10:08:53.243Z,27
2022-12-18T10:10:33.003Z,27
2022-12-18T10:12:12.782Z,27
2022-12-18T10:13:52.547Z,27
2022-12-18T10:15:32.304Z,27
2022-12-18T10:17:12.087Z,27
2022-12-18T10:18:51.835Z,27
2022-12-18T10:20:31.631Z,27
2022-12-18T10:22:11.376Z,27
2022-12-18T10:23:51.191Z,27
2022-12-18T10:25:30.928Z,27
2022-12-18T10:27:10.677Z,27
2022-12-18T10:28:50.452Z,27
2022-12-18T10:30:30.203Z,27
2022-12-18T10:32:09.981Z,27
2022-12-18T10:33:49.744Z,27
2022-12-18T10:35:29.530Z,27
2022-12-18T10:37:09.282Z,27
2022-12-18T10:38:49.047Z,27
2022-12-18T10:40:28.808Z,27
2022-12-18T10:42:08.578Z,27
2022-12-18T10:43:48.350Z,27
2022-12-18T10:45:28.104Z,27
2022-12-18T10:47:07.903Z,27
2022-12-18T10:48:47.650Z,28
2022-12-18T10:50:27.402Z,28
2022-12-18T10:52:07.315Z,28
2022-12-18T10:53:47.123Z,28
2022-12-18T10:55:26.719Z,28
2022-12-18T10:57:06.486Z,28
2022-12-18T10:58:46.241Z,28
2022-12-18T11:00:26.044Z,28
2022-12-18T11:02:05.778Z,28
2022-12-18T11:03:45.940Z,28
2022-12-18T11:05:25.762Z,28
2022-12-18T11:07:05.108Z,29
2022-12-18T11:08:44.866Z,28
2022-12-18T11:10:24.615Z,28
2022-12-18T11:12:04.428Z,28
2022-12-18T11:13:44.200Z,28
2022-12-18T11:15:23.918Z,28
2022-12-18T11:17:03.703Z,28
2022-12-18T11:18:43.446Z,28
2022-12-18T11:20:23.217Z,28
2022-12-18T11:22:02.982Z,28
2022-12-18T11:23:42.745Z,28
2022-12-18T11:25:22.523Z,28
2022-12-18T11:27:02.296Z,28
2022-12-18T11:28:42.056Z,28
2022-12-18T11:30:21.851Z,28
2022-12-18T11:32:01.618Z,28
2022-12-18T11:33:41.354Z,28
2022-12-18T11:35:21.203Z,28
2022-12-18T11:37:00.893Z,28
2022-12-18T11:38:40.654Z,28
2022-12-18T11:40:20.424Z,28
2022-12-18T11:42:00.187Z,28
2022-12-18T11:43:39.964Z,28
2022-12-18T11:45:19.724Z,28
2022-12-18T11:46:59.502Z,28
2022-12-18T11:48:39.273Z,28
2022-12-18T11:50:19.041Z,28
2022-12-18T11:51:58.783Z,28
2022-12-18T11:53:38.569Z,28
2022-12-18T11:55:18.867Z,28
2022-12-18T11:56:58.106Z,28
2022-12-18T11:58:37.876Z,27
2022-12-18T12:00:17.633Z,28
2022-12-18T12:01:57.395Z,28
2022-12-18T12:03:37.168Z,28
2022-12-18T12:05:17.011Z,28
2022-12-18T12:06:56.693Z,28
2022-12-18T12:08:36.457Z,28
2022-12-18T12:10:16.230Z,28
2022-12-18T12:11:55.996Z,28
2022-12-18T12:13:35.762Z,28
2022-12-18T12:15:15.536Z,28
2022-12-18T12:16:55.339Z,27
2022-12-18T12:18:35.063Z,27
2022-12-18T12:20:14.823Z,27
2022-12-18T12:21:54.613Z,27
2022-12-18T12:23:34.379Z,27
2022-12-18T12:25:14.122Z,28
2022-12-18T12:26:53.890Z,28
2022-12-18T12:30:13.431Z,27
2022-12-18T12:31:53.211Z,27
2022-12-18T12:33:32.964Z,27
2022-12-18T12:35:12.784Z,27
2022-12-18T12:36:52.537Z,27
2022-12-18T12:38:32.270Z,27
2022-12-18T12:40:12.055Z,27
2022-12-18T12:41:51.811Z,27
2022-12-18T12:43:31.686Z,27
2022-12-18T12:45:11.340Z,27
2022-12-18T12:46:51.289Z,27
2022-12-18T12:48:31.051Z,27
2022-12-18T12:50:10.744Z,27
2022-12-18T12:51:50.472Z,27
2022-12-18T12:53:30.302Z,27
2022-12-18T12:55:10.092Z,27
2022-12-18T12:56:49.888Z,27
2022-12-18T12:58:29.505Z,26
2022-12-18T13:00:09.365Z,26
2022-12-18T13:01:49.078Z,27
2022-12-18T13:03:28.766Z,26
2022-12-18T13:05:08.559Z,26
2022-12-18T13:06:48.313Z,26
2022-12-18T13:08:28.083Z,26
2022-12-18T13:10:07.828Z,26
2022-12-18T13:11:47.599Z,26
2022-12-18T13:13:27.389Z,26
2022-12-18T13:15:07.195Z,26
2022-12-18T13:16:46.940Z,26
2022-12-18T13:18:26.726Z,26
2022-12-18T13:20:06.541Z,26
2022-12-18T13:21:46.198Z,26
2022-12-18T13:23:26.042Z,26
2022-12-18T13:25:05.717Z,26
2022-12-18T13:26:45.543Z,26
2022-12-18T13:28:25.381Z,26
2022-12-18T13:30:05.205Z,26
2022-12-18T13:33:24.701Z,26
2022-12-18T13:35:04.439Z,26
2022-12-18T13:36:44.201Z,26
2022-12-18T13:38:23.976Z,26
2022-12-18T13:40:03.828Z,26
2022-12-18T13:41:43.628Z,26
2022-12-18T13:43:23.261Z,25
2022-12-18T13:45:02.940Z,25
2022-12-18T13:46:42.732Z,25
2022-12-18T13:48:22.484Z,25
2022-12-18T13:50:02.268Z,25
2022-12-18T13:51:42.072Z,25
2022-12-18T13:53:21.826Z,26
2022-12-18T13:55:01.545Z,27
2022-12-18T13:56:41.332Z,29
2022-12-18T13:58:21.191Z,28
2022-12-18T14:00:00.850Z,29
2022-12-18T14:01:40.649Z,28
2022-12-18T14:03:20.376Z,29
2022-12-18T14:05:00.172Z,30
2022-12-18T14:06:39.909Z,26
2022-12-18T14:08:19.748Z,27
2022-12-18T14:09:59.592Z,25
2022-12-18T14:11:39.333Z,26
2022-12-18T14:13:18.992Z,26
2022-12-18T14:14:58.951Z,27
2022-12-18T14:16:38.527Z,25
2022-12-18T14:18:18.294Z,24
2022-12-18T14:19:58.056Z,24
2022-12-18T14:21:37.835Z,24
2022-12-18T14:23:17.590Z,25
2022-12-18T14:24:57.355Z,27
2022-12-18T14:28:16.907Z,28
2022-12-18T14:29:56.667Z,28
2022-12-18T14:31:36.442Z,30
2022-12-18T14:33:16.189Z,33
2022-12-18T14:34:55.967Z,34
2022-12-18T14:36:35.732Z,36
2022-12-18T14:38:15.497Z,39
2022-12-18T14:39:55.285Z,42
2022-12-18T14:41:35.027Z,45
2022-12-18T14:43:14.804Z,50
2022-12-18T14:44:54.577Z,51
2022-12-18T14:46:34.326Z,56
2022-12-18T14:48:14.100Z,60
2022-12-18T14:49:53.866Z,61
2022-12-18T14:51:33.640Z,60
2022-12-18T14:53:13.406Z,58
2022-12-18T14:54:53.174Z,57
2022-12-18T14:56:32.928Z,55
2022-12-18T14:58:12.716Z,54
2022-12-18T14:59:52.483Z,51
2022-12-18T15:01:32.262Z,48
2022-12-18T15:03:11.999Z,44
2022-12-18T15:04:51.772Z,40
2022-12-18T15:06:31.546Z,37
2022-12-18T15:08:11.311Z,34
2022-12-18T15:09:51.076Z,31
2022-12-18T15:11:30.859Z,30
2022-12-18T15:13:10.615Z,25
2022-12-18T15:14:50.387Z,24
2022-12-18T15:16:30.144Z,24
2022-12-18T15:18:09.901Z,24
2022-12-18T15:19:49.672Z,24
2022-12-18T15:21:29.441Z,25
2022-12-18T15:23:09.220Z,24
2022-12-18T15:24:48.973Z,24
2022-12-18T15:26:28.764Z,24
2022-12-18T15:28:08.527Z,24
2022-12-18T15:29:48.302Z,24
2022-12-18T15:31:28.060Z,24
2022-12-18T15:33:07.833Z,24
2022-12-18T15:34:47.591Z,24
2022-12-18T15:36:27.357Z,24
2022-12-18T15:38:07.132Z,24
2022-12-18T15:39:46.895Z,24
2022-12-18T15:43:06.432Z,24
2022-12-18T15:44:46.187Z,24
2022-12-18T15:46:25.963Z,24
2022-12-18T15:48:05.715Z,24
2022-12-18T15:49:45.501Z,24
2022-12-18T15:51:25.255Z,24
2022-12-18T15:53:05.056Z,24
2022-12-18T15:54:44.810Z,24
2022-12-18T15:56:24.581Z,24
2022-12-18T15:58:04.345Z,24
2022-12-18T15:59:44.112Z,24
2022-12-18T16:01:23.877Z,24
2022-12-18T16:03:03.653Z,24
2022-12-18T16:04:43.414Z,24
2022-12-18T16:06:23.187Z,24
2022-12-18T16:08:02.955Z,24
2022-12-18T16:11:22.484Z,24
2022-12-18T16:13:02.258Z,24
2022-12-18T16:14:42.095Z,24
2022-12-18T16:16:21.792Z,24
2022-12-18T16:18:01.567Z,24
2022-12-18T16:19:41.335Z,24
2022-12-18T16:23:00.896Z,24
2022-12-18T16:24:40.634Z,24
2022-12-18T16:26:20.411Z,24
2022-12-18T16:28:00.167Z,24
2022-12-18T16:29:39.922Z,24
2022-12-18T16:31:19.705Z,24
2022-12-18T16:32:59.464Z,24
2022-12-18T16:34:39.233Z,24
2022-12-18T16:36:19.001Z,24
2022-12-18T16:37:58.818Z,24
2022-12-18T16:39:38.541Z,24
2022-12-18T16:41:18.304Z,24
2022-12-18T16:42:58.065Z,24
2022-12-18T16:44:37.843Z,24
2022-12-18T16:46:17.598Z,24
2022-12-18T16:47:57.369Z,24
2022-12-18T16:49:37.130Z,24
2022-12-18T16:51:16.915Z,24
2022-12-18T16:52:56.676Z,24
2022-12-18T16:54:36.458Z,24
2022-12-18T16:56:16.233Z,24
2022-12-18T16:57:55.993Z,24
2022-12-18T16:59:35.755Z,24
2022-12-18T17:01:15.539Z,24
2022-12-18T17:02:55.299Z,24
2022-12-18T17:04:35.066Z,24
2022-12-18T17:06:14.825Z,24
2022-12-18T17:07:54.602Z,24
2022-12-18T17:09:34.358Z,24
2022-12-18T17:11:14.144Z,24
2022-12-18T17:12:53.909Z,24
2022-12-18T17:14:33.684Z,24
2022-12-18T17:16:13.443Z,24
2022-12-18T17:17:53.216Z,24
2022-12-18T17:19:33.026Z,24
2022-12-18T17:21:12.765Z,24
2022-12-18T17:22:52.535Z,24
2022-12-18T17:24:32.303Z,24
2022-12-18T17:26:12.080Z,24
2022-12-18T17:27:51.832Z,24
2022-12-18T17:29:31.599Z,24
2022-12-18T17:31:11.382Z,24
2022-12-18T17:32:51.140Z,24
2022-12-18T17:34:30.915Z,24
2022-12-18T17:36:10.678Z,24
2022-12-18T17:37:50.463Z,24
2022-12-18T17:39:30.224Z,24
2022-12-18T17:41:10.078Z,24
2022-12-18T17:42:49.824Z,24
2022-12-18T17:44:29.543Z,24
2022-12-18T17:46:09.303Z,24
2022-12-18T17:47:49.065Z,24
2022-12-18T17:49:28.837Z,24
2022-12-18T17:51:08.618Z,24
2022-12-18T17:52:48.371Z,24
2022-12-18T17:54:28.145Z,24
2022-12-18T17:56:07.920Z,24
2022-12-18T17:57:47.692Z,24
2022-12-18T17:59:27.460Z,24
2022-12-18T18:01:07.258Z,24
2022-12-18T18:02:46.980Z,24
2022-12-18T18:04:26.761Z,24
2022-12-18T18:06:06.527Z,24
2022-12-18T18:07:46.305Z,24
2022-12-18T18:09:26.060Z,24
2022-12-18T18:12:45.607Z,24
2022-12-18T18:14:25.364Z,24
2022-12-18T18:17:44.922Z,24
2022-12-18T18:19:24.726Z,24
2022-12-18T18:21:04.462Z,24
2022-12-18T18:22:44.218Z,24
2022-12-18T18:24:24.001Z,24
2022-12-18T18:26:03.770Z,24
2022-12-18T18:27:43.541Z,24
2022-12-18T18:29:23.336Z,23
2022-12-18T18:31:03.063Z,23
2022-12-18T18:32:42.832Z,24
2022-12-18T18:34:22.612Z,24
2022-12-18T18:36:02.377Z,23
2022-12-18T18:37:42.136Z,23
2022-12-18T18:39:21.893Z,24
2022-12-18T18:41:01.685Z,24
2022-12-18T18:42:41.428Z,23
2022-12-18T18:44:21.202Z,23
2022-12-18T18:46:00.965Z,24
2022-12-18T18:47:40.768Z,23
2022-12-18T18:49:20.507Z,23
2022-12-18T18:51:00.271Z,23
2022-12-18T18:52:40.034Z,23
2022-12-18T18:54:19.787Z,23
2022-12-18T18:55:59.566Z,24
2022-12-18T18:57:39.327Z,23
2022-12-18T18:59:19.084Z,23
2022-12-18T19:00:58.865Z,23
2022-12-18T19:04:18.393Z,23
2022-12-18T19:05:58.158Z,23
2022-12-18T19:07:37.923Z,23
2022-12-18T19:09:17.688Z,23
2022-12-18T19:10:57.458Z,23
2022-12-18T19:12:37.227Z,23
2022-12-18T19:15:56.922Z,23
2022-12-18T19:17:36.512Z,23
2022-12-18T19:19:16.357Z,23
2022-12-18T19:20:56.083Z,23
2022-12-18T19:22:35.829Z,23
2022-12-18T19:24:15.591Z,23
2022-12-18T19:25:55.355Z,23
2022-12-18T19:27:35.158Z,23
2022-12-18T19:29:14.901Z,23
2022-12-18T19:30:54.662Z,23
2022-12-18T19:32:34.419Z,23
2022-12-18T19:34:14.212Z,23
2022-12-18T19:35:53.948Z,23
2022-12-18T19:37:33.705Z,23
2022-12-18T19:39:13.542Z,23
2022-12-18T19:40:53.247Z,23
2022-12-18T19:42:33.023Z,23
2022-12-18T19:44:12.786Z,23
2022-12-18T19:45:52.560Z,23
2022-12-18T19:47:32.303Z,23
2022-12-18T19:49:12.158Z,23
2022-12-18T19:50:51.860Z,23
2022-12-18T19:52:31.607Z,23
2022-12-18T19:54:11.374Z,23
2022-12-18T19:55:51.132Z,23
2022-12-18T19:57:30.924Z,23
2022-12-18T19:59:10.685Z,23
2022-12-18T20:00:50.432Z,23
2022-12-18T20:02:30.204Z,23
2022-12-18T20:04:09.983Z,23
2022-12-18T20:05:49.745Z,23
2022-12-18T20:07:29.500Z,23
2022-12-18T20:09:09.275Z,23
2022-12-18T20:10:49.051Z,23
2022-12-18T20:12:28.791Z,23
2022-12-18T20:14:08.576Z,23
2022-12-18T20:15:48.412Z,23
2022-12-18T20:17:28.107Z,23
2022-12-18T20:19:07.885Z,23
2022-12-18T20:20:47.659Z,23
2022-12-18T20:22:27.410Z,23
2022-12-18T20:24:07.179Z,23
2022-12-18T20:25:46.958Z,23
2022-12-18T20:27:26.720Z,23
2022-12-18T20:29:06.512Z,23
2022-12-18T20:30:46.278Z,23
2022-12-18T20:32:26.033Z,23
2022-12-18T20:34:05.802Z,23
2022-12-18T20:35:45.582Z,23
2022-12-18T20:37:25.350Z,23
2022-12-18T20:39:05.109Z,23
2022-12-18T20:40:44.875Z,23
2022-12-18T20:42:24.653Z,23
2022-12-18T20:44:04.409Z,23
2022-12-18T20:45:44.188Z,23
2022-12-18T20:47:23.975Z,23
2022-12-18T20:49:03.716Z,23
2022-12-18T20:50:43.554Z,23
2022-12-18T20:52:23.250Z,23
2022-12-18T20:54:03.027Z,23
2022-12-18T20:55:42.808Z,23
2022-12-18T20:57:22.574Z,23
2022-12-18T20:59:02.327Z,23
2022-12-18T21:00:42.116Z,23
2022-12-18T21:02:21.862Z,23
2022-12-18T21:04:01.639Z,23
2022-12-18T21:05:41.393Z,23
2022-12-18T21:07:21.172Z,23
2022-12-18T21:09:00.936Z,23
2022-12-18T21:10:40.694Z,23
2022-12-18T21:12:20.481Z,23
2022-12-18T21:14:00.247Z,23
2022-12-18T21:15:40.003Z,23
2022-12-18T21:19:00.098Z,23
2022-12-18T21:22:19.092Z,23
2022-12-18T21:23:58.857Z,23
2022-12-18T21:25:38.626Z,23
2022-12-18T21:27:18.402Z,23
2022-12-18T21:28:58.165Z,23
2022-12-18T21:30:37.936Z,23
2022-12-18T21:32:17.700Z,23
2022-12-18T21:33:57.465Z,23
2022-12-18T21:35:37.289Z,23
2022-12-18T21:37:17.017Z,23
2022-12-18T21:38:56.821Z,23
2022-12-18T21:40:36.553Z,23
2022-12-18T21:42:16.322Z,23
2022-12-18T21:43:56.098Z,23
2022-12-18T21:45:35.854Z,23
2022-12-18T21:47:15.630Z,22
2022-12-18T21:48:55.408Z,23
2022-12-18T21:50:35.172Z,23
2022-12-18T21:52:14.954Z,23
2022-12-18T21:53:54.697Z,22
2022-12-18T21:55:34.474Z,23
2022-12-18T21:57:14.246Z,22
2022-12-18T21:58:54.021Z,22
2022-12-18T22:02:13.604Z,22
2022-12-18T22:03:53.315Z,22
2022-12-18T22:05:33.127Z,22
2022-12-18T22:07:12.858Z,22
2022-12-18T22:08:52.631Z,22
2022-12-18T22:10:32.409Z,22
2022-12-18T22:12:12.157Z,22
2022-12-18T22:13:51.923Z,22
2022-12-18T22:15:31.710Z,22
2022-12-18T22:17:11.488Z,22
2022-12-18T22:18:51.256Z,22
2022-12-18T22:20:31.156Z,22
2022-12-18T22:22:10.797Z,22
2022-12-18T22:23:50.562Z,22
2022-12-18T22:25:30.307Z,22
2022-12-18T22:27:10.136Z,22
2022-12-18T22:28:49.858Z,22
2022-12-18T22:30:29.670Z,22
2022-12-18T22:32:09.403Z,22
2022-12-18T22:33:49.176Z,22
2022-12-18T22:35:28.941Z,22
2022-12-18T22:37:08.707Z,23
2022-12-18T22:40:28.265Z,22
2022-12-18T22:42:08.117Z,22
2022-12-18T22:43:47.791Z,22
2022-12-18T22:45:27.551Z,22
2022-12-18T22:47:07.332Z,22
2022-12-18T22:48:47.102Z,22
2022-12-18T22:50:26.856Z,22
2022-12-18T22:52:06.632Z,22
2022-12-18T22:53:46.402Z,22
2022-12-18T22:55:26.155Z,22
2022-12-18T22:57:06.046Z,22
2022-12-18T22:58:45.754Z,22
2022-12-18T23:00:25.485Z,22
2022-12-18T23:02:05.234Z,22
2022-12-18T23:03:45.077Z,22
2022-12-18T23:05:24.793Z,22
2022-12-18T23:07:04.563Z,22
2022-12-18T23:08:44.326Z,22
2022-12-18T23:10:24.084Z,22
2022-12-18T23:12:03.869Z,22
2022-12-18T23:13:43.639Z,22
2022-12-18T23:15:23.411Z,22
2022-12-18T23:17:03.162Z,22
2022-12-18T23:18:42.925Z,22
2022-12-18T23:20:22.712Z,22
2022-12-18T23:22:02.490Z,22
2022-12-18T23:23:42.252Z,22
2022-12-18T23:25:22.009Z,22
2022-12-18T23:27:01.783Z,22
2022-12-18T23:28:41.565Z,22
2022-12-18T23:30:21.336Z,22
2022-12-18T23:32:01.090Z,22
2022-12-18T23:33:40.856Z,22
2022-12-18T23:35:20.656Z,22
2022-12-18T23:37:00.403Z,22
2022-12-18T23:40:19.936Z,22
2022-12-18T23:41:59.718Z,22
2022-12-18T23:43:39.478Z,22
2022-12-18T23:45:19.254Z,22
2022-12-18T23:46:59.001Z,22
2022-12-18T23:48:38.786Z,22
2022-12-18T23:50:18.542Z,22
2022-12-18T23:51:58.317Z,22
2022-12-18T23:53:38.095Z,22
2022-12-18T23:55:17.849Z,22
2022-12-18T23:56:57.633Z,22
2022-12-18T23:58:37.402Z,22
